sensor_id;sensor_type;location;lat;lon;timestamp;P1;durP1;ratioP1;P2;durP2;ratioP2
29712;SDS011;16623;53.632;10.016;2023-04-03T00:01:29;15.55;;;3.03;;
29712;SDS011;16623;53.632;10.016;2023-04-03T00:03:55;14.98;;;3.53;;
29712;SDS011;16623;53.632;10.016;2023-04-03T00:06:21;4.95;;;2.80;;
29712;SDS011;16623;53.632;10.016;2023-04-03T00:08:48;7.70;;;2.78;;
29712;SDS011;16623;53.632;10.016;2023-04-03T00:11:15;10.73;;;3.13;;
29712;SDS011;16623;53.632;10.016;2023-04-03T00:13:41;11.02;;;2.65;;
29712;SDS011;16623;53.632;10.016;2023-04-03T00:16:07;6.10;;;2.65;;
29712;SDS011;16623;53.632;10.016;2023-04-03T00:18:35;5.90;;;2.80;;
29712;SDS011;16623;53.632;10.016;2023-04-03T00:21:01;11.93;;;2.72;;
29712;SDS011;16623;53.632;10.016;2023-04-03T00:23:27;10.05;;;2.70;;
29712;SDS011;16623;53.632;10.016;2023-04-03T00:25:52;6.43;;;2.90;;
29712;SDS011;16623;53.632;10.016;2023-04-03T00:28:19;10.70;;;3.10;;
29712;SDS011;16623;53.632;10.016;2023-04-03T00:30:45;7.57;;;2.60;;
29712;SDS011;16623;53.632;10.016;2023-04-03T00:33:11;7.90;;;2.63;;
29712;SDS011;16623;53.632;10.016;2023-04-03T00:35:38;4.38;;;2.60;;
29712;SDS011;16623;53.632;10.016;2023-04-03T00:38:04;10.23;;;2.50;;
29712;SDS011;16623;53.632;10.016;2023-04-03T00:40:33;8.18;;;2.47;;
29712;SDS011;16623;53.632;10.016;2023-04-03T00:43:00;9.75;;;3.30;;
29712;SDS011;16623;53.632;10.016;2023-04-03T00:45:28;9.23;;;2.60;;
29712;SDS011;16623;53.632;10.016;2023-04-03T00:47:56;6.70;;;2.65;;
29712;SDS011;16623;53.632;10.016;2023-04-03T00:50:25;7.70;;;2.53;;
29712;SDS011;16623;53.632;10.016;2023-04-03T00:52:52;9.98;;;2.78;;
29712;SDS011;16623;53.632;10.016;2023-04-03T00:55:18;8.68;;;2.67;;
29712;SDS011;16623;53.632;10.016;2023-04-03T00:57:44;6.45;;;2.42;;
29712;SDS011;16623;53.632;10.016;2023-04-03T01:00:12;8.57;;;2.88;;
29712;SDS011;16623;53.632;10.016;2023-04-03T01:02:41;11.98;;;2.45;;
29712;SDS011;16623;53.632;10.016;2023-04-03T01:05:06;6.50;;;2.17;;
29712;SDS011;16623;53.632;10.016;2023-04-03T01:07:33;11.35;;;3.40;;
29712;SDS011;16623;53.632;10.016;2023-04-03T01:10:03;10.90;;;2.75;;
29712;SDS011;16623;53.632;10.016;2023-04-03T01:12:33;10.15;;;2.88;;
29712;SDS011;16623;53.632;10.016;2023-04-03T01:15:07;10.75;;;3.30;;
29712;SDS011;16623;53.632;10.016;2023-04-03T01:17:43;10.82;;;2.63;;
29712;SDS011;16623;53.632;10.016;2023-04-03T01:25:35;7.40;;;2.83;;
29712;SDS011;16623;53.632;10.016;2023-04-03T01:28:03;10.13;;;2.67;;
29712;SDS011;16623;53.632;10.016;2023-04-03T01:30:31;5.35;;;2.45;;
29712;SDS011;16623;53.632;10.016;2023-04-03T01:32:59;5.80;;;2.70;;
29712;SDS011;16623;53.632;10.016;2023-04-03T01:35:25;13.30;;;3.60;;
29712;SDS011;16623;53.632;10.016;2023-04-03T01:37:50;8.02;;;3.10;;
29712;SDS011;16623;53.632;10.016;2023-04-03T01:40:16;8.40;;;2.83;;
29712;SDS011;16623;53.632;10.016;2023-04-03T01:42:42;12.43;;;2.58;;
29712;SDS011;16623;53.632;10.016;2023-04-03T01:45:07;9.18;;;3.30;;
29712;SDS011;16623;53.632;10.016;2023-04-03T01:47:33;14.10;;;3.17;;
29712;SDS011;16623;53.632;10.016;2023-04-03T01:49:59;5.28;;;2.58;;
29712;SDS011;16623;53.632;10.016;2023-04-03T01:52:24;5.47;;;2.67;;
29712;SDS011;16623;53.632;10.016;2023-04-03T01:54:50;7.18;;;2.47;;
29712;SDS011;16623;53.632;10.016;2023-04-03T01:57:15;9.30;;;2.97;;
29712;SDS011;16623;53.632;10.016;2023-04-03T01:59:41;17.42;;;3.92;;
29712;SDS011;16623;53.632;10.016;2023-04-03T02:02:07;9.13;;;2.50;;
29712;SDS011;16623;53.632;10.016;2023-04-03T02:04:32;11.27;;;2.72;;
29712;SDS011;16623;53.632;10.016;2023-04-03T02:06:58;8.25;;;2.55;;
29712;SDS011;16623;53.632;10.016;2023-04-03T02:09:23;8.38;;;2.85;;
29712;SDS011;16623;53.632;10.016;2023-04-03T02:11:49;9.43;;;2.70;;
29712;SDS011;16623;53.632;10.016;2023-04-03T02:14:15;11.60;;;2.85;;
29712;SDS011;16623;53.632;10.016;2023-04-03T02:16:40;5.35;;;2.58;;
29712;SDS011;16623;53.632;10.016;2023-04-03T02:19:06;10.85;;;3.70;;
29712;SDS011;16623;53.632;10.016;2023-04-03T02:21:31;12.13;;;2.92;;
29712;SDS011;16623;53.632;10.016;2023-04-03T02:23:57;10.77;;;5.05;;
29712;SDS011;16623;53.632;10.016;2023-04-03T02:26:23;5.85;;;2.45;;
29712;SDS011;16623;53.632;10.016;2023-04-03T02:28:48;9.48;;;2.88;;
29712;SDS011;16623;53.632;10.016;2023-04-03T02:31:14;8.68;;;2.65;;
29712;SDS011;16623;53.632;10.016;2023-04-03T02:33:39;9.68;;;2.97;;
29712;SDS011;16623;53.632;10.016;2023-04-03T02:36:07;7.10;;;2.95;;
29712;SDS011;16623;53.632;10.016;2023-04-03T02:38:33;9.65;;;2.63;;
29712;SDS011;16623;53.632;10.016;2023-04-03T02:41:00;11.07;;;2.63;;
29712;SDS011;16623;53.632;10.016;2023-04-03T02:43:30;10.00;;;2.50;;
29712;SDS011;16623;53.632;10.016;2023-04-03T02:45:56;13.80;;;3.10;;
29712;SDS011;16623;53.632;10.016;2023-04-03T02:48:21;10.13;;;3.00;;
29712;SDS011;16623;53.632;10.016;2023-04-03T02:50:47;7.00;;;2.22;;
29712;SDS011;16623;53.632;10.016;2023-04-03T02:53:13;8.07;;;2.85;;
29712;SDS011;16623;53.632;10.016;2023-04-03T02:55:40;5.97;;;3.15;;
29712;SDS011;16623;53.632;10.016;2023-04-03T02:58:07;10.25;;;2.97;;
29712;SDS011;16623;53.632;10.016;2023-04-03T03:00:33;14.57;;;3.03;;
29712;SDS011;16623;53.632;10.016;2023-04-03T03:02:59;8.48;;;3.00;;
29712;SDS011;16623;53.632;10.016;2023-04-03T03:05:24;7.13;;;2.47;;
29712;SDS011;16623;53.632;10.016;2023-04-03T03:07:51;8.05;;;2.65;;
29712;SDS011;16623;53.632;10.016;2023-04-03T03:10:16;7.40;;;3.03;;
29712;SDS011;16623;53.632;10.016;2023-04-03T03:12:42;8.13;;;3.30;;
29712;SDS011;16623;53.632;10.016;2023-04-03T03:15:07;11.07;;;3.05;;
29712;SDS011;16623;53.632;10.016;2023-04-03T03:17:33;6.50;;;2.83;;
29712;SDS011;16623;53.632;10.016;2023-04-03T03:20:00;13.20;;;3.35;;
29712;SDS011;16623;53.632;10.016;2023-04-03T03:22:26;5.65;;;2.92;;
29712;SDS011;16623;53.632;10.016;2023-04-03T03:24:52;10.40;;;3.03;;
29712;SDS011;16623;53.632;10.016;2023-04-03T03:27:18;8.98;;;3.22;;
29712;SDS011;16623;53.632;10.016;2023-04-03T03:29:43;12.00;;;3.00;;
29712;SDS011;16623;53.632;10.016;2023-04-03T03:32:09;14.40;;;3.08;;
29712;SDS011;16623;53.632;10.016;2023-04-03T03:34:35;17.52;;;3.15;;
29712;SDS011;16623;53.632;10.016;2023-04-03T03:37:00;12.27;;;3.33;;
29712;SDS011;16623;53.632;10.016;2023-04-03T03:39:26;16.83;;;3.92;;
29712;SDS011;16623;53.632;10.016;2023-04-03T03:41:51;11.13;;;3.00;;
29712;SDS011;16623;53.632;10.016;2023-04-03T03:44:18;8.38;;;3.15;;
29712;SDS011;16623;53.632;10.016;2023-04-03T03:46:44;11.73;;;3.75;;
29712;SDS011;16623;53.632;10.016;2023-04-03T03:49:10;7.60;;;2.85;;
29712;SDS011;16623;53.632;10.016;2023-04-03T03:51:36;6.95;;;2.60;;
29712;SDS011;16623;53.632;10.016;2023-04-03T03:54:02;14.88;;;3.05;;
29712;SDS011;16623;53.632;10.016;2023-04-03T03:56:28;14.10;;;3.45;;
29712;SDS011;16623;53.632;10.016;2023-04-03T03:58:54;14.52;;;3.25;;
29712;SDS011;16623;53.632;10.016;2023-04-03T04:01:21;10.75;;;3.08;;
29712;SDS011;16623;53.632;10.016;2023-04-03T04:03:50;13.13;;;3.80;;
29712;SDS011;16623;53.632;10.016;2023-04-03T04:06:16;11.27;;;3.55;;
29712;SDS011;16623;53.632;10.016;2023-04-03T04:08:42;14.55;;;4.30;;
29712;SDS011;16623;53.632;10.016;2023-04-03T04:11:07;9.43;;;3.00;;
29712;SDS011;16623;53.632;10.016;2023-04-03T04:13:34;8.77;;;3.60;;
29712;SDS011;16623;53.632;10.016;2023-04-03T04:15:59;7.07;;;3.35;;
29712;SDS011;16623;53.632;10.016;2023-04-03T04:18:25;10.27;;;3.15;;
29712;SDS011;16623;53.632;10.016;2023-04-03T04:20:50;10.27;;;4.05;;
29712;SDS011;16623;53.632;10.016;2023-04-03T04:23:16;7.90;;;2.78;;
29712;SDS011;16623;53.632;10.016;2023-04-03T04:25:44;16.48;;;2.97;;
29712;SDS011;16623;53.632;10.016;2023-04-03T04:28:10;11.23;;;3.55;;
29712;SDS011;16623;53.632;10.016;2023-04-03T04:30:36;10.68;;;3.67;;
29712;SDS011;16623;53.632;10.016;2023-04-03T04:33:02;6.95;;;2.72;;
29712;SDS011;16623;53.632;10.016;2023-04-03T04:35:28;8.38;;;2.70;;
29712;SDS011;16623;53.632;10.016;2023-04-03T04:40:41;9.32;;;3.03;;
29712;SDS011;16623;53.632;10.016;2023-04-03T04:43:07;10.50;;;3.10;;
29712;SDS011;16623;53.632;10.016;2023-04-03T04:45:32;9.00;;;3.45;;
29712;SDS011;16623;53.632;10.016;2023-04-03T04:47:58;14.75;;;4.80;;
29712;SDS011;16623;53.632;10.016;2023-04-03T04:50:23;14.48;;;3.25;;
29712;SDS011;16623;53.632;10.016;2023-04-03T04:52:49;12.63;;;3.25;;
29712;SDS011;16623;53.632;10.016;2023-04-03T04:55:14;6.55;;;2.67;;
29712;SDS011;16623;53.632;10.016;2023-04-03T04:57:40;14.25;;;3.63;;
29712;SDS011;16623;53.632;10.016;2023-04-03T05:00:06;8.38;;;2.80;;
29712;SDS011;16623;53.632;10.016;2023-04-03T05:02:32;7.93;;;3.00;;
29712;SDS011;16623;53.632;10.016;2023-04-03T05:04:57;13.98;;;3.75;;
29712;SDS011;16623;53.632;10.016;2023-04-03T05:07:23;9.75;;;3.22;;
29712;SDS011;16623;53.632;10.016;2023-04-03T05:09:49;7.32;;;2.95;;
29712;SDS011;16623;53.632;10.016;2023-04-03T05:12:14;12.35;;;3.17;;
29712;SDS011;16623;53.632;10.016;2023-04-03T05:14:41;8.07;;;2.78;;
29712;SDS011;16623;53.632;10.016;2023-04-03T05:17:06;15.98;;;3.63;;
29712;SDS011;16623;53.632;10.016;2023-04-03T05:19:33;14.10;;;3.35;;
29712;SDS011;16623;53.632;10.016;2023-04-03T05:21:58;10.90;;;4.10;;
29712;SDS011;16623;53.632;10.016;2023-04-03T05:24:23;12.00;;;3.88;;
29712;SDS011;16623;53.632;10.016;2023-04-03T05:26:49;11.60;;;4.28;;
29712;SDS011;16623;53.632;10.016;2023-04-03T05:29:15;13.65;;;4.32;;
29712;SDS011;16623;53.632;10.016;2023-04-03T05:31:41;15.40;;;5.65;;
29712;SDS011;16623;53.632;10.016;2023-04-03T05:34:06;7.38;;;4.32;;
29712;SDS011;16623;53.632;10.016;2023-04-03T05:36:32;11.80;;;4.25;;
29712;SDS011;16623;53.632;10.016;2023-04-03T05:38:57;15.93;;;5.88;;
29712;SDS011;16623;53.632;10.016;2023-04-03T05:41:23;16.38;;;5.40;;
29712;SDS011;16623;53.632;10.016;2023-04-03T05:43:49;9.93;;;4.32;;
29712;SDS011;16623;53.632;10.016;2023-04-03T05:46:15;8.27;;;3.10;;
29712;SDS011;16623;53.632;10.016;2023-04-03T05:48:43;9.52;;;3.45;;
29712;SDS011;16623;53.632;10.016;2023-04-03T05:51:16;11.90;;;3.40;;
29712;SDS011;16623;53.632;10.016;2023-04-03T05:53:46;11.32;;;3.40;;
29712;SDS011;16623;53.632;10.016;2023-04-03T05:56:12;13.38;;;3.95;;
29712;SDS011;16623;53.632;10.016;2023-04-03T05:58:38;12.60;;;4.70;;
29712;SDS011;16623;53.632;10.016;2023-04-03T06:01:04;12.57;;;3.08;;
29712;SDS011;16623;53.632;10.016;2023-04-03T06:03:30;8.88;;;3.53;;
29712;SDS011;16623;53.632;10.016;2023-04-03T06:05:56;10.98;;;3.25;;
29712;SDS011;16623;53.632;10.016;2023-04-03T06:08:21;10.73;;;3.72;;
29712;SDS011;16623;53.632;10.016;2023-04-03T06:10:49;16.63;;;3.55;;
29712;SDS011;16623;53.632;10.016;2023-04-03T06:13:15;8.43;;;2.70;;
29712;SDS011;16623;53.632;10.016;2023-04-03T06:15:41;6.40;;;3.10;;
29712;SDS011;16623;53.632;10.016;2023-04-03T06:18:06;9.57;;;3.30;;
29712;SDS011;16623;53.632;10.016;2023-04-03T06:20:32;7.32;;;3.50;;
29712;SDS011;16623;53.632;10.016;2023-04-03T06:22:57;7.30;;;3.22;;
29712;SDS011;16623;53.632;10.016;2023-04-03T06:25:23;13.88;;;3.30;;
29712;SDS011;16623;53.632;10.016;2023-04-03T06:27:49;7.93;;;3.13;;
29712;SDS011;16623;53.632;10.016;2023-04-03T06:30:15;8.25;;;3.22;;
29712;SDS011;16623;53.632;10.016;2023-04-03T06:32:40;8.50;;;2.90;;
29712;SDS011;16623;53.632;10.016;2023-04-03T06:35:06;12.73;;;3.22;;
29712;SDS011;16623;53.632;10.016;2023-04-03T06:37:32;8.98;;;2.70;;
29712;SDS011;16623;53.632;10.016;2023-04-03T06:39:57;9.82;;;3.00;;
29712;SDS011;16623;53.632;10.016;2023-04-03T06:42:25;8.77;;;2.67;;
29712;SDS011;16623;53.632;10.016;2023-04-03T06:44:50;4.03;;;1.77;;
29712;SDS011;16623;53.632;10.016;2023-04-03T06:47:16;8.60;;;2.28;;
29712;SDS011;16623;53.632;10.016;2023-04-03T06:49:42;9.48;;;2.50;;
29712;SDS011;16623;53.632;10.016;2023-04-03T06:52:08;8.82;;;3.15;;
29712;SDS011;16623;53.632;10.016;2023-04-03T06:54:34;8.60;;;2.30;;
29712;SDS011;16623;53.632;10.016;2023-04-03T06:57:00;9.40;;;2.30;;
29712;SDS011;16623;53.632;10.016;2023-04-03T06:59:26;11.25;;;3.85;;
29712;SDS011;16623;53.632;10.016;2023-04-03T07:01:51;3.45;;;1.85;;
29712;SDS011;16623;53.632;10.016;2023-04-03T07:04:17;8.05;;;2.10;;
29712;SDS011;16623;53.632;10.016;2023-04-03T07:06:46;8.52;;;1.85;;
29712;SDS011;16623;53.632;10.016;2023-04-03T07:09:13;2.75;;;1.80;;
29712;SDS011;16623;53.632;10.016;2023-04-03T07:11:39;10.07;;;2.25;;
29712;SDS011;16623;53.632;10.016;2023-04-03T07:14:05;7.32;;;2.47;;
29712;SDS011;16623;53.632;10.016;2023-04-03T07:16:32;5.95;;;2.60;;
29712;SDS011;16623;53.632;10.016;2023-04-03T07:18:59;5.63;;;1.85;;
29712;SDS011;16623;53.632;10.016;2023-04-03T07:21:25;6.32;;;2.20;;
29712;SDS011;16623;53.632;10.016;2023-04-03T07:23:50;5.82;;;2.17;;
29712;SDS011;16623;53.632;10.016;2023-04-03T07:26:16;4.85;;;2.10;;
29712;SDS011;16623;53.632;10.016;2023-04-03T07:28:42;5.00;;;1.65;;
29712;SDS011;16623;53.632;10.016;2023-04-03T07:31:12;7.00;;;1.73;;
29712;SDS011;16623;53.632;10.016;2023-04-03T07:33:38;6.10;;;2.42;;
29712;SDS011;16623;53.632;10.016;2023-04-03T07:36:05;7.72;;;1.80;;
29712;SDS011;16623;53.632;10.016;2023-04-03T07:38:34;3.53;;;1.60;;
29712;SDS011;16623;53.632;10.016;2023-04-03T07:41:00;4.35;;;1.60;;
29712;SDS011;16623;53.632;10.016;2023-04-03T07:43:26;6.18;;;1.58;;
29712;SDS011;16623;53.632;10.016;2023-04-03T07:45:52;4.07;;;1.67;;
29712;SDS011;16623;53.632;10.016;2023-04-03T07:48:19;4.50;;;1.30;;
29712;SDS011;16623;53.632;10.016;2023-04-03T07:50:46;9.40;;;2.00;;
29712;SDS011;16623;53.632;10.016;2023-04-03T07:53:12;4.13;;;1.38;;
29712;SDS011;16623;53.632;10.016;2023-04-03T07:55:38;8.02;;;1.83;;
29712;SDS011;16623;53.632;10.016;2023-04-03T07:58:11;4.10;;;1.60;;
29712;SDS011;16623;53.632;10.016;2023-04-03T08:00:39;6.82;;;1.70;;
29712;SDS011;16623;53.632;10.016;2023-04-03T08:03:05;4.70;;;1.60;;
29712;SDS011;16623;53.632;10.016;2023-04-03T08:05:31;5.75;;;1.70;;
29712;SDS011;16623;53.632;10.016;2023-04-03T08:08:02;4.93;;;1.48;;
29712;SDS011;16623;53.632;10.016;2023-04-03T08:10:29;3.20;;;1.40;;
29712;SDS011;16623;53.632;10.016;2023-04-03T08:12:55;8.35;;;2.90;;
29712;SDS011;16623;53.632;10.016;2023-04-03T08:15:20;8.77;;;1.77;;
29712;SDS011;16623;53.632;10.016;2023-04-03T08:17:46;9.15;;;2.15;;
29712;SDS011;16623;53.632;10.016;2023-04-03T08:20:12;7.45;;;2.58;;
29712;SDS011;16623;53.632;10.016;2023-04-03T08:22:38;7.43;;;2.13;;
29712;SDS011;16623;53.632;10.016;2023-04-03T08:25:03;5.20;;;1.48;;
29712;SDS011;16623;53.632;10.016;2023-04-03T08:27:29;6.03;;;1.95;;
29712;SDS011;16623;53.632;10.016;2023-04-03T08:29:56;2.72;;;1.50;;
29712;SDS011;16623;53.632;10.016;2023-04-03T08:32:21;8.63;;;1.73;;
29712;SDS011;16623;53.632;10.016;2023-04-03T08:34:47;2.85;;;1.20;;
29712;SDS011;16623;53.632;10.016;2023-04-03T08:37:13;5.97;;;1.40;;
29712;SDS011;16623;53.632;10.016;2023-04-03T08:39:40;6.30;;;1.60;;
29712;SDS011;16623;53.632;10.016;2023-04-03T08:42:19;6.32;;;1.60;;
29712;SDS011;16623;53.632;10.016;2023-04-03T08:48:07;4.03;;;1.20;;
29712;SDS011;16623;53.632;10.016;2023-04-03T08:50:43;3.35;;;1.42;;
29712;SDS011;16623;53.632;10.016;2023-04-03T08:53:16;3.50;;;1.88;;
29712;SDS011;16623;53.632;10.016;2023-04-03T08:55:45;5.85;;;1.20;;
29712;SDS011;16623;53.632;10.016;2023-04-03T09:01:00;2.83;;;1.27;;
29712;SDS011;16623;53.632;10.016;2023-04-03T09:03:41;3.53;;;0.60;;
29712;SDS011;16623;53.632;10.016;2023-04-03T09:06:20;4.88;;;1.48;;
29712;SDS011;16623;53.632;10.016;2023-04-03T09:09:07;3.25;;;1.00;;
29712;SDS011;16623;53.632;10.016;2023-04-03T09:12:14;5.03;;;1.77;;
29712;SDS011;16623;53.632;10.016;2023-04-03T09:15:24;2.80;;;1.00;;
29712;SDS011;16623;53.632;10.016;2023-04-03T09:22:43;4.22;;;1.20;;
29712;SDS011;16623;53.632;10.016;2023-04-03T09:25:23;3.47;;;1.33;;
29712;SDS011;16623;53.632;10.016;2023-04-03T09:27:52;3.33;;;1.23;;
29712;SDS011;16623;53.632;10.016;2023-04-03T09:30:22;1.35;;;1.00;;
29712;SDS011;16623;53.632;10.016;2023-04-03T09:32:53;2.38;;;1.13;;
29712;SDS011;16623;53.632;10.016;2023-04-03T09:35:21;3.58;;;1.10;;
29712;SDS011;16623;53.632;10.016;2023-04-03T09:38:01;3.03;;;1.55;;
29712;SDS011;16623;53.632;10.016;2023-04-03T09:40:42;7.00;;;1.90;;
29712;SDS011;16623;53.632;10.016;2023-04-03T09:43:19;3.25;;;1.13;;
29712;SDS011;16623;53.632;10.016;2023-04-03T09:45:47;4.13;;;1.25;;
29712;SDS011;16623;53.632;10.016;2023-04-03T09:53:29;2.95;;;1.20;;
29712;SDS011;16623;53.632;10.016;2023-04-03T09:56:29;2.30;;;1.30;;
29712;SDS011;16623;53.632;10.016;2023-04-03T10:04:17;1.38;;;0.77;;
29712;SDS011;16623;53.632;10.016;2023-04-03T10:06:54;3.05;;;1.00;;
29712;SDS011;16623;53.632;10.016;2023-04-03T10:09:24;3.38;;;1.75;;
29712;SDS011;16623;53.632;10.016;2023-04-03T10:12:08;9.43;;;4.90;;
29712;SDS011;16623;53.632;10.016;2023-04-03T10:14:59;2.67;;;1.20;;
29712;SDS011;16623;53.632;10.016;2023-04-03T10:17:35;1.60;;;0.80;;
29712;SDS011;16623;53.632;10.016;2023-04-03T10:22:56;1.70;;;0.90;;
29712;SDS011;16623;53.632;10.016;2023-04-03T10:31:06;2.15;;;1.10;;
29712;SDS011;16623;53.632;10.016;2023-04-03T10:50:00;4.60;;;1.60;;
29712;SDS011;16623;53.632;10.016;2023-04-03T10:55:24;4.45;;;1.05;;
29712;SDS011;16623;53.632;10.016;2023-04-03T10:58:02;3.17;;;1.27;;
29712;SDS011;16623;53.632;10.016;2023-04-03T11:03:14;1.77;;;1.45;;
29712;SDS011;16623;53.632;10.016;2023-04-03T11:05:47;5.65;;;1.42;;
29712;SDS011;16623;53.632;10.016;2023-04-03T11:11:10;4.70;;;1.50;;
29712;SDS011;16623;53.632;10.016;2023-04-03T11:13:43;5.43;;;1.40;;
29712;SDS011;16623;53.632;10.016;2023-04-03T11:16:19;9.10;;;1.50;;
29712;SDS011;16623;53.632;10.016;2023-04-03T11:18:54;3.65;;;0.95;;
29712;SDS011;16623;53.632;10.016;2023-04-03T11:21:34;3.25;;;1.08;;
29712;SDS011;16623;53.632;10.016;2023-04-03T11:24:23;8.05;;;1.40;;
29712;SDS011;16623;53.632;10.016;2023-04-03T11:26:52;4.65;;;1.50;;
29712;SDS011;16623;53.632;10.016;2023-04-03T11:29:20;3.03;;;1.33;;
29712;SDS011;16623;53.632;10.016;2023-04-03T11:32:10;3.10;;;1.23;;
29712;SDS011;16623;53.632;10.016;2023-04-03T11:34:53;2.88;;;1.02;;
29712;SDS011;16623;53.632;10.016;2023-04-03T11:37:34;3.90;;;1.15;;
29712;SDS011;16623;53.632;10.016;2023-04-03T11:40:08;1.15;;;0.95;;
29712;SDS011;16623;53.632;10.016;2023-04-03T11:43:18;5.05;;;1.45;;
29712;SDS011;16623;53.632;10.016;2023-04-03T11:53:38;1.67;;;0.80;;
29712;SDS011;16623;53.632;10.016;2023-04-03T11:59:26;4.50;;;1.25;;
29712;SDS011;16623;53.632;10.016;2023-04-03T12:04:16;2.38;;;0.95;;
29712;SDS011;16623;53.632;10.016;2023-04-03T12:09:27;4.63;;;1.20;;
29712;SDS011;16623;53.632;10.016;2023-04-03T12:11:55;5.28;;;1.10;;
29712;SDS011;16623;53.632;10.016;2023-04-03T12:14:22;1.55;;;1.10;;
29712;SDS011;16623;53.632;10.016;2023-04-03T12:16:50;2.10;;;1.05;;
29712;SDS011;16623;53.632;10.016;2023-04-03T12:19:35;3.00;;;1.55;;
29712;SDS011;16623;53.632;10.016;2023-04-03T12:22:06;4.10;;;1.17;;
29712;SDS011;16623;53.632;10.016;2023-04-03T12:24:35;1.67;;;1.10;;
29712;SDS011;16623;53.632;10.016;2023-04-03T12:27:17;4.55;;;1.70;;
29712;SDS011;16623;53.632;10.016;2023-04-03T12:29:54;2.92;;;1.35;;
29712;SDS011;16623;53.632;10.016;2023-04-03T12:32:41;3.20;;;1.17;;
29712;SDS011;16623;53.632;10.016;2023-04-03T12:43:53;2.83;;;1.02;;
29712;SDS011;16623;53.632;10.016;2023-04-03T12:46:35;5.32;;;1.20;;
29712;SDS011;16623;53.632;10.016;2023-04-03T12:51:53;4.32;;;1.30;;
29712;SDS011;16623;53.632;10.016;2023-04-03T12:54:21;7.88;;;1.95;;
29712;SDS011;16623;53.632;10.016;2023-04-03T12:59:35;1.73;;;1.08;;
29712;SDS011;16623;53.632;10.016;2023-04-03T13:02:01;2.20;;;1.20;;
29712;SDS011;16623;53.632;10.016;2023-04-03T13:04:28;4.60;;;1.30;;
29712;SDS011;16623;53.632;10.016;2023-04-03T13:06:56;6.63;;;1.52;;
29712;SDS011;16623;53.632;10.016;2023-04-03T13:09:26;1.83;;;1.30;;
29712;SDS011;16623;53.632;10.016;2023-04-03T13:11:56;3.08;;;1.23;;
29712;SDS011;16623;53.632;10.016;2023-04-03T13:14:26;3.63;;;0.95;;
29712;SDS011;16623;53.632;10.016;2023-04-03T13:19:24;3.75;;;1.63;;
29712;SDS011;16623;53.632;10.016;2023-04-03T13:21:54;2.10;;;1.20;;
29712;SDS011;16623;53.632;10.016;2023-04-03T13:24:25;3.72;;;1.27;;
29712;SDS011;16623;53.632;10.016;2023-04-03T13:26:54;3.17;;;1.17;;
29712;SDS011;16623;53.632;10.016;2023-04-03T13:29:24;4.28;;;1.30;;
29712;SDS011;16623;53.632;10.016;2023-04-03T13:31:53;2.42;;;1.30;;
29712;SDS011;16623;53.632;10.016;2023-04-03T13:34:21;3.33;;;0.93;;
29712;SDS011;16623;53.632;10.016;2023-04-03T13:36:56;2.50;;;0.90;;
29712;SDS011;16623;53.632;10.016;2023-04-03T13:39:31;5.35;;;1.40;;
29712;SDS011;16623;53.632;10.016;2023-04-03T13:42:02;2.95;;;1.23;;
29712;SDS011;16623;53.632;10.016;2023-04-03T13:47:40;3.42;;;1.83;;
29712;SDS011;16623;53.632;10.016;2023-04-03T13:50:25;2.35;;;1.08;;
29712;SDS011;16623;53.632;10.016;2023-04-03T13:52:53;0.90;;;0.90;;
29712;SDS011;16623;53.632;10.016;2023-04-03T13:55:22;4.53;;;1.27;;
29712;SDS011;16623;53.632;10.016;2023-04-03T14:00:32;3.15;;;2.00;;
29712;SDS011;16623;53.632;10.016;2023-04-03T14:06:06;7.03;;;1.10;;
29712;SDS011;16623;53.632;10.016;2023-04-03T14:08:34;4.20;;;1.70;;
29712;SDS011;16623;53.632;10.016;2023-04-03T14:11:00;7.13;;;1.50;;
29712;SDS011;16623;53.632;10.016;2023-04-03T14:13:26;1.85;;;1.10;;
29712;SDS011;16623;53.632;10.016;2023-04-03T14:15:51;3.08;;;1.27;;
29712;SDS011;16623;53.632;10.016;2023-04-03T14:18:18;3.13;;;1.20;;
29712;SDS011;16623;53.632;10.016;2023-04-03T14:20:46;1.98;;;1.05;;
29712;SDS011;16623;53.632;10.016;2023-04-03T14:23:12;6.18;;;1.10;;
29712;SDS011;16623;53.632;10.016;2023-04-03T14:25:38;4.57;;;1.58;;
29712;SDS011;16623;53.632;10.016;2023-04-03T14:28:15;4.72;;;1.52;;
29712;SDS011;16623;53.632;10.016;2023-04-03T14:30:43;5.13;;;1.70;;
29712;SDS011;16623;53.632;10.016;2023-04-03T14:33:12;6.28;;;1.60;;
29712;SDS011;16623;53.632;10.016;2023-04-03T14:35:40;4.03;;;2.13;;
29712;SDS011;16623;53.632;10.016;2023-04-03T14:38:12;9.27;;;2.22;;
29712;SDS011;16623;53.632;10.016;2023-04-03T14:40:47;5.82;;;1.50;;
29712;SDS011;16623;53.632;10.016;2023-04-03T14:43:13;4.03;;;1.30;;
29712;SDS011;16623;53.632;10.016;2023-04-03T14:45:40;7.93;;;1.85;;
29712;SDS011;16623;53.632;10.016;2023-04-03T14:48:06;3.85;;;1.50;;
29712;SDS011;16623;53.632;10.016;2023-04-03T14:50:41;2.92;;;2.00;;
29712;SDS011;16623;53.632;10.016;2023-04-03T14:53:06;6.38;;;1.40;;
29712;SDS011;16623;53.632;10.016;2023-04-03T14:55:34;5.30;;;1.38;;
29712;SDS011;16623;53.632;10.016;2023-04-03T14:58:00;4.57;;;1.52;;
29712;SDS011;16623;53.632;10.016;2023-04-03T15:00:26;5.18;;;1.50;;
29712;SDS011;16623;53.632;10.016;2023-04-03T15:02:51;6.05;;;1.50;;
29712;SDS011;16623;53.632;10.016;2023-04-03T15:05:17;2.80;;;1.63;;
29712;SDS011;16623;53.632;10.016;2023-04-03T15:07:52;6.50;;;1.33;;
29712;SDS011;16623;53.632;10.016;2023-04-03T15:10:20;7.53;;;1.83;;
29712;SDS011;16623;53.632;10.016;2023-04-03T15:12:49;5.15;;;1.83;;
29712;SDS011;16623;53.632;10.016;2023-04-03T15:15:16;3.47;;;1.48;;
29712;SDS011;16623;53.632;10.016;2023-04-03T15:17:43;3.25;;;1.30;;
29712;SDS011;16623;53.632;10.016;2023-04-03T15:20:11;5.85;;;1.60;;
29712;SDS011;16623;53.632;10.016;2023-04-03T15:22:42;4.93;;;1.98;;
29712;SDS011;16623;53.632;10.016;2023-04-03T15:25:08;4.10;;;1.60;;
29712;SDS011;16623;53.632;10.016;2023-04-03T15:27:35;4.05;;;1.73;;
29712;SDS011;16623;53.632;10.016;2023-04-03T15:30:02;2.63;;;1.55;;
29712;SDS011;16623;53.632;10.016;2023-04-03T15:32:29;3.80;;;1.55;;
29712;SDS011;16623;53.632;10.016;2023-04-03T15:34:56;5.22;;;1.30;;
29712;SDS011;16623;53.632;10.016;2023-04-03T15:37:21;2.33;;;1.42;;
29712;SDS011;16623;53.632;10.016;2023-04-03T15:39:47;9.55;;;1.60;;
29712;SDS011;16623;53.632;10.016;2023-04-03T15:42:13;7.18;;;1.88;;
29712;SDS011;16623;53.632;10.016;2023-04-03T15:44:39;2.42;;;1.50;;
29712;SDS011;16623;53.632;10.016;2023-04-03T15:47:04;5.22;;;2.00;;
29712;SDS011;16623;53.632;10.016;2023-04-03T15:49:30;5.43;;;1.85;;
29712;SDS011;16623;53.632;10.016;2023-04-03T15:51:57;2.90;;;1.30;;
29712;SDS011;16623;53.632;10.016;2023-04-03T15:54:23;6.28;;;1.90;;
29712;SDS011;16623;53.632;10.016;2023-04-03T15:56:50;5.55;;;1.77;;
29712;SDS011;16623;53.632;10.016;2023-04-03T15:59:16;3.28;;;1.48;;
29712;SDS011;16623;53.632;10.016;2023-04-03T16:01:41;3.20;;;1.40;;
29712;SDS011;16623;53.632;10.016;2023-04-03T16:04:07;5.43;;;1.95;;
29712;SDS011;16623;53.632;10.016;2023-04-03T16:06:34;4.10;;;1.52;;
29712;SDS011;16623;53.632;10.016;2023-04-03T16:09:00;8.18;;;5.78;;
29712;SDS011;16623;53.632;10.016;2023-04-03T16:11:26;4.38;;;1.42;;
29712;SDS011;16623;53.632;10.016;2023-04-03T16:13:53;5.15;;;1.30;;
29712;SDS011;16623;53.632;10.016;2023-04-03T16:16:18;4.47;;;1.55;;
29712;SDS011;16623;53.632;10.016;2023-04-03T16:18:44;2.72;;;1.40;;
29712;SDS011;16623;53.632;10.016;2023-04-03T16:21:11;4.13;;;1.42;;
29712;SDS011;16623;53.632;10.016;2023-04-03T16:23:38;6.35;;;1.50;;